sensor_id;sensor_type;location;lat;lon;timestamp;P1;durP1;ratioP1;P2;durP2;ratioP2
3967;SDS011;9221;42.646;23.380;2022-11-15T00:00:31;33.33;;;9.50;;
3967;SDS011;9221;42.646;23.380;2022-11-15T00:02:57;31.23;;;9.47;;
3967;SDS011;9221;42.646;23.380;2022-11-15T00:05:23;30.30;;;9.87;;
3967;SDS011;9221;42.646;23.380;2022-11-15T00:07:48;22.13;;;8.80;;
3967;SDS011;9221;42.646;23.380;2022-11-15T00:10:14;21.90;;;9.10;;
3967;SDS011;9221;42.646;23.380;2022-11-15T00:12:39;28.20;;;10.03;;
3967;SDS011;9221;42.646;23.380;2022-11-15T00:15:05;39.73;;;9.37;;
3967;SDS011;9221;42.646;23.380;2022-11-15T00:17:31;20.97;;;8.27;;
3967;SDS011;9221;42.646;23.380;2022-11-15T00:19:56;34.57;;;9.57;;
3967;SDS011;9221;42.646;23.380;2022-11-15T00:22:22;24.67;;;8.20;;
3967;SDS011;9221;42.646;23.380;2022-11-15T00:24:47;23.87;;;8.60;;
3967;SDS011;9221;42.646;23.380;2022-11-15T00:27:13;22.70;;;8.03;;
3967;SDS011;9221;42.646;23.380;2022-11-15T00:29:38;29.50;;;10.80;;
3967;SDS011;9221;42.646;23.380;2022-11-15T00:32:08;36.97;;;13.77;;
3967;SDS011;9221;42.646;23.380;2022-11-15T00:34:37;43.20;;;15.00;;
3967;SDS011;9221;42.646;23.380;2022-11-15T00:37:02;44.60;;;16.17;;
3967;SDS011;9221;42.646;23.380;2022-11-15T00:39:27;39.90;;;11.03;;
3967;SDS011;9221;42.646;23.380;2022-11-15T00:41:53;57.23;;;13.93;;
3967;SDS011;9221;42.646;23.380;2022-11-15T00:44:18;53.33;;;16.10;;
3967;SDS011;9221;42.646;23.380;2022-11-15T00:46:44;54.73;;;16.83;;
3967;SDS011;9221;42.646;23.380;2022-11-15T00:49:09;56.17;;;19.30;;
3967;SDS011;9221;42.646;23.380;2022-11-15T00:51:35;76.20;;;22.27;;
3967;SDS011;9221;42.646;23.380;2022-11-15T00:54:00;58.77;;;18.83;;
3967;SDS011;9221;42.646;23.380;2022-11-15T00:56:26;60.27;;;18.97;;
3967;SDS011;9221;42.646;23.380;2022-11-15T00:58:52;48.27;;;16.60;;
3967;SDS011;9221;42.646;23.380;2022-11-15T01:01:17;54.53;;;17.03;;
3967;SDS011;9221;42.646;23.380;2022-11-15T01:03:43;58.30;;;17.47;;
3967;SDS011;9221;42.646;23.380;2022-11-15T01:06:08;69.93;;;20.00;;
3967;SDS011;9221;42.646;23.380;2022-11-15T01:08:34;58.90;;;17.97;;
3967;SDS011;9221;42.646;23.380;2022-11-15T01:11:03;57.93;;;17.53;;
3967;SDS011;9221;42.646;23.380;2022-11-15T01:13:31;59.00;;;19.47;;
3967;SDS011;9221;42.646;23.380;2022-11-15T01:15:58;56.67;;;19.27;;
3967;SDS011;9221;42.646;23.380;2022-11-15T01:18:24;63.27;;;19.43;;
3967;SDS011;9221;42.646;23.380;2022-11-15T01:20:49;66.43;;;17.80;;
3967;SDS011;9221;42.646;23.380;2022-11-15T01:23:15;61.43;;;20.80;;
3967;SDS011;9221;42.646;23.380;2022-11-15T01:25:40;65.27;;;19.63;;
3967;SDS011;9221;42.646;23.380;2022-11-15T01:28:06;64.13;;;19.30;;
3967;SDS011;9221;42.646;23.380;2022-11-15T01:30:31;62.97;;;21.30;;
3967;SDS011;9221;42.646;23.380;2022-11-15T01:32:57;60.60;;;20.27;;
3967;SDS011;9221;42.646;23.380;2022-11-15T01:35:22;63.43;;;21.53;;
3967;SDS011;9221;42.646;23.380;2022-11-15T01:37:48;61.87;;;19.90;;
3967;SDS011;9221;42.646;23.380;2022-11-15T01:40:14;65.80;;;19.70;;
3967;SDS011;9221;42.646;23.380;2022-11-15T01:42:39;73.60;;;20.13;;
3967;SDS011;9221;42.646;23.380;2022-11-15T01:45:05;75.10;;;23.30;;
3967;SDS011;9221;42.646;23.380;2022-11-15T01:47:33;60.20;;;21.43;;
3967;SDS011;9221;42.646;23.380;2022-11-15T01:50:04;73.67;;;22.97;;
3967;SDS011;9221;42.646;23.380;2022-11-15T01:52:33;65.50;;;21.17;;
3967;SDS011;9221;42.646;23.380;2022-11-15T01:57:28;72.83;;;21.60;;
3967;SDS011;9221;42.646;23.380;2022-11-15T01:59:54;69.53;;;23.40;;
3967;SDS011;9221;42.646;23.380;2022-11-15T02:02:22;64.80;;;21.57;;
3967;SDS011;9221;42.646;23.380;2022-11-15T02:04:47;71.53;;;22.03;;
3967;SDS011;9221;42.646;23.380;2022-11-15T02:07:14;70.13;;;21.70;;
3967;SDS011;9221;42.646;23.380;2022-11-15T02:09:43;62.73;;;22.10;;
3967;SDS011;9221;42.646;23.380;2022-11-15T02:12:10;77.27;;;21.50;;
3967;SDS011;9221;42.646;23.380;2022-11-15T02:14:42;67.10;;;21.40;;
3967;SDS011;9221;42.646;23.380;2022-11-15T02:18:14;58.10;;;20.60;;
3967;SDS011;9221;42.646;23.380;2022-11-15T02:36:59;74.80;;;21.27;;
3967;SDS011;9221;42.646;23.380;2022-11-15T02:39:41;52.93;;;18.90;;
3967;SDS011;9221;42.646;23.380;2022-11-15T02:42:11;62.00;;;18.67;;
3967;SDS011;9221;42.646;23.380;2022-11-15T02:45:09;54.70;;;17.20;;
3967;SDS011;9221;42.646;23.380;2022-11-15T02:47:43;56.33;;;18.97;;
3967;SDS011;9221;42.646;23.380;2022-11-15T02:50:11;51.27;;;16.87;;
3967;SDS011;9221;42.646;23.380;2022-11-15T02:52:38;53.97;;;16.40;;
3967;SDS011;9221;42.646;23.380;2022-11-15T02:55:03;52.20;;;18.47;;
3967;SDS011;9221;42.646;23.380;2022-11-15T03:00:19;54.17;;;17.57;;
3967;SDS011;9221;42.646;23.380;2022-11-15T03:05:24;45.07;;;13.80;;
3967;SDS011;9221;42.646;23.380;2022-11-15T03:19:22;30.37;;;8.60;;
3967;SDS011;9221;42.646;23.380;2022-11-15T03:21:50;30.67;;;9.47;;
3967;SDS011;9221;42.646;23.380;2022-11-15T03:24:17;29.93;;;8.70;;
3967;SDS011;9221;42.646;23.380;2022-11-15T03:26:45;21.80;;;7.90;;
3967;SDS011;9221;42.646;23.380;2022-11-15T03:29:13;34.00;;;8.67;;
3967;SDS011;9221;42.646;23.380;2022-11-15T03:31:44;21.17;;;7.70;;
3967;SDS011;9221;42.646;23.380;2022-11-15T03:36:57;22.17;;;8.30;;
3967;SDS011;9221;42.646;23.380;2022-11-15T03:39:23;25.97;;;9.10;;
3967;SDS011;9221;42.646;23.380;2022-11-15T03:49:34;24.90;;;8.10;;
3967;SDS011;9221;42.646;23.380;2022-11-15T03:52:03;25.13;;;9.10;;
3967;SDS011;9221;42.646;23.380;2022-11-15T03:54:29;24.23;;;7.93;;
3967;SDS011;9221;42.646;23.380;2022-11-15T03:56:55;26.33;;;9.00;;
3967;SDS011;9221;42.646;23.380;2022-11-15T03:59:20;33.47;;;11.60;;
3967;SDS011;9221;42.646;23.380;2022-11-15T04:01:46;38.00;;;12.27;;
3967;SDS011;9221;42.646;23.380;2022-11-15T04:04:11;48.67;;;15.80;;
3967;SDS011;9221;42.646;23.380;2022-11-15T04:06:37;42.87;;;14.90;;
3967;SDS011;9221;42.646;23.380;2022-11-15T04:09:03;66.77;;;21.30;;
3967;SDS011;9221;42.646;23.380;2022-11-15T04:11:28;63.33;;;19.73;;
3967;SDS011;9221;42.646;23.380;2022-11-15T04:13:54;60.50;;;20.80;;
3967;SDS011;9221;42.646;23.380;2022-11-15T04:16:19;58.37;;;20.53;;
3967;SDS011;9221;42.646;23.380;2022-11-15T04:18:44;58.13;;;17.60;;
3967;SDS011;9221;42.646;23.380;2022-11-15T04:21:30;51.63;;;16.00;;
3967;SDS011;9221;42.646;23.380;2022-11-15T04:24:14;51.27;;;19.20;;
3967;SDS011;9221;42.646;23.380;2022-11-15T04:26:39;70.33;;;18.13;;
3967;SDS011;9221;42.646;23.380;2022-11-15T04:29:05;91.40;;;20.60;;
3967;SDS011;9221;42.646;23.380;2022-11-15T04:31:48;60.20;;;18.67;;
3967;SDS011;9221;42.646;23.380;2022-11-15T04:34:14;62.83;;;19.37;;
3967;SDS011;9221;42.646;23.380;2022-11-15T04:36:39;83.13;;;18.23;;
3967;SDS011;9221;42.646;23.380;2022-11-15T04:39:23;71.77;;;19.50;;
3967;SDS011;9221;42.646;23.380;2022-11-15T04:41:48;68.70;;;16.97;;
3967;SDS011;9221;42.646;23.380;2022-11-15T04:44:14;68.30;;;18.03;;
3967;SDS011;9221;42.646;23.380;2022-11-15T04:46:39;53.47;;;19.13;;
3967;SDS011;9221;42.646;23.380;2022-11-15T04:49:05;72.00;;;19.30;;
3967;SDS011;9221;42.646;23.380;2022-11-15T04:51:30;85.07;;;21.30;;
3967;SDS011;9221;42.646;23.380;2022-11-15T04:53:55;63.87;;;19.40;;
3967;SDS011;9221;42.646;23.380;2022-11-15T04:56:21;58.63;;;19.87;;
3967;SDS011;9221;42.646;23.380;2022-11-15T04:58:48;79.87;;;20.23;;
3967;SDS011;9221;42.646;23.380;2022-11-15T05:01:14;67.10;;;20.53;;
3967;SDS011;9221;42.646;23.380;2022-11-15T05:03:40;55.30;;;18.77;;
3967;SDS011;9221;42.646;23.380;2022-11-15T05:06:25;74.27;;;21.37;;
3967;SDS011;9221;42.646;23.380;2022-11-15T05:08:51;70.60;;;17.80;;
3967;SDS011;9221;42.646;23.380;2022-11-15T05:11:16;73.67;;;19.83;;
3967;SDS011;9221;42.646;23.380;2022-11-15T05:13:42;73.63;;;20.50;;
3967;SDS011;9221;42.646;23.380;2022-11-15T05:16:07;72.03;;;21.17;;
3967;SDS011;9221;42.646;23.380;2022-11-15T05:18:33;86.77;;;20.60;;
3967;SDS011;9221;42.646;23.380;2022-11-15T05:21:08;70.97;;;19.57;;
3967;SDS011;9221;42.646;23.380;2022-11-15T05:23:38;76.43;;;19.63;;
3967;SDS011;9221;42.646;23.380;2022-11-15T05:26:04;65.10;;;18.30;;
3967;SDS011;9221;42.646;23.380;2022-11-15T05:28:32;76.03;;;19.23;;
3967;SDS011;9221;42.646;23.380;2022-11-15T05:31:06;82.93;;;18.77;;
3967;SDS011;9221;42.646;23.380;2022-11-15T05:33:33;63.03;;;19.13;;
3967;SDS011;9221;42.646;23.380;2022-11-15T05:36:01;68.90;;;19.07;;
3967;SDS011;9221;42.646;23.380;2022-11-15T05:38:30;82.43;;;17.40;;
3967;SDS011;9221;42.646;23.380;2022-11-15T05:40:56;72.77;;;18.87;;
3967;SDS011;9221;42.646;23.380;2022-11-15T05:43:22;51.93;;;15.87;;
3967;SDS011;9221;42.646;23.380;2022-11-15T05:45:49;60.13;;;18.37;;
3967;SDS011;9221;42.646;23.380;2022-11-15T05:48:15;58.80;;;16.67;;
3967;SDS011;9221;42.646;23.380;2022-11-15T05:50:41;49.97;;;14.57;;
3967;SDS011;9221;42.646;23.380;2022-11-15T05:53:09;43.90;;;13.23;;
3967;SDS011;9221;42.646;23.380;2022-11-15T05:55:38;45.90;;;13.70;;
3967;SDS011;9221;42.646;23.380;2022-11-15T05:58:04;45.80;;;11.50;;
3967;SDS011;9221;42.646;23.380;2022-11-15T06:00:30;37.60;;;12.00;;
3967;SDS011;9221;42.646;23.380;2022-11-15T06:02:55;37.63;;;11.20;;
3967;SDS011;9221;42.646;23.380;2022-11-15T06:05:21;40.83;;;11.23;;
3967;SDS011;9221;42.646;23.380;2022-11-15T06:07:46;36.90;;;11.60;;
3967;SDS011;9221;42.646;23.380;2022-11-15T06:10:11;33.90;;;11.17;;
3967;SDS011;9221;42.646;23.380;2022-11-15T06:12:37;44.00;;;12.07;;
3967;SDS011;9221;42.646;23.380;2022-11-15T06:15:02;42.17;;;10.50;;
3967;SDS011;9221;42.646;23.380;2022-11-15T06:17:28;31.43;;;10.10;;
3967;SDS011;9221;42.646;23.380;2022-11-15T06:19:54;36.60;;;10.90;;
3967;SDS011;9221;42.646;23.380;2022-11-15T06:22:19;35.20;;;11.37;;
3967;SDS011;9221;42.646;23.380;2022-11-15T06:24:44;39.60;;;11.57;;
3967;SDS011;9221;42.646;23.380;2022-11-15T06:27:10;39.93;;;11.73;;
3967;SDS011;9221;42.646;23.380;2022-11-15T06:29:36;50.37;;;12.80;;
3967;SDS011;9221;42.646;23.380;2022-11-15T06:32:01;54.07;;;12.53;;
3967;SDS011;9221;42.646;23.380;2022-11-15T06:34:27;48.03;;;13.90;;
3967;SDS011;9221;42.646;23.380;2022-11-15T06:36:52;57.10;;;15.30;;
3967;SDS011;9221;42.646;23.380;2022-11-15T06:39:18;53.67;;;15.00;;
3967;SDS011;9221;42.646;23.380;2022-11-15T06:41:43;56.33;;;14.70;;
3967;SDS011;9221;42.646;23.380;2022-11-15T06:44:09;57.53;;;16.13;;
3967;SDS011;9221;42.646;23.380;2022-11-15T06:46:34;64.03;;;16.83;;
3967;SDS011;9221;42.646;23.380;2022-11-15T06:48:59;60.90;;;16.10;;
3967;SDS011;9221;42.646;23.380;2022-11-15T06:51:25;55.17;;;16.20;;
3967;SDS011;9221;42.646;23.380;2022-11-15T06:53:50;65.53;;;17.83;;
3967;SDS011;9221;42.646;23.380;2022-11-15T06:56:16;65.50;;;16.53;;
3967;SDS011;9221;42.646;23.380;2022-11-15T06:58:41;76.27;;;17.17;;
3967;SDS011;9221;42.646;23.380;2022-11-15T07:01:08;69.40;;;18.13;;
3967;SDS011;9221;42.646;23.380;2022-11-15T07:03:35;76.80;;;17.37;;
3967;SDS011;9221;42.646;23.380;2022-11-15T07:06:02;51.70;;;15.93;;
3967;SDS011;9221;42.646;23.380;2022-11-15T07:08:28;62.83;;;16.40;;
3967;SDS011;9221;42.646;23.380;2022-11-15T07:10:54;53.33;;;15.60;;
3967;SDS011;9221;42.646;23.380;2022-11-15T07:13:25;65.07;;;16.50;;
3967;SDS011;9221;42.646;23.380;2022-11-15T07:15:51;65.70;;;16.53;;
3967;SDS011;9221;42.646;23.380;2022-11-15T07:18:17;62.70;;;17.17;;
3967;SDS011;9221;42.646;23.380;2022-11-15T07:20:42;76.57;;;19.47;;
3967;SDS011;9221;42.646;23.380;2022-11-15T07:23:08;67.77;;;18.87;;
3967;SDS011;9221;42.646;23.380;2022-11-15T07:25:33;67.50;;;18.67;;
3967;SDS011;9221;42.646;23.380;2022-11-15T07:27:59;51.57;;;14.97;;
3967;SDS011;9221;42.646;23.380;2022-11-15T07:30:25;59.73;;;15.10;;
3967;SDS011;9221;42.646;23.380;2022-11-15T07:33:00;50.67;;;12.40;;
3967;SDS011;9221;42.646;23.380;2022-11-15T07:35:26;35.00;;;11.70;;
3967;SDS011;9221;42.646;23.380;2022-11-15T07:37:54;40.00;;;11.97;;
3967;SDS011;9221;42.646;23.380;2022-11-15T07:40:20;46.63;;;13.63;;
3967;SDS011;9221;42.646;23.380;2022-11-15T07:42:46;43.47;;;12.50;;
3967;SDS011;9221;42.646;23.380;2022-11-15T07:45:17;42.57;;;12.07;;
3967;SDS011;9221;42.646;23.380;2022-11-15T07:47:46;37.23;;;11.87;;
3967;SDS011;9221;42.646;23.380;2022-11-15T07:50:12;35.60;;;12.90;;
3967;SDS011;9221;42.646;23.380;2022-11-15T07:52:38;53.30;;;14.40;;
3967;SDS011;9221;42.646;23.380;2022-11-15T07:55:03;41.93;;;12.57;;
3967;SDS011;9221;42.646;23.380;2022-11-15T07:57:29;41.07;;;13.73;;
3967;SDS011;9221;42.646;23.380;2022-11-15T07:59:55;54.70;;;15.80;;
3967;SDS011;9221;42.646;23.380;2022-11-15T08:02:20;66.73;;;18.27;;
3967;SDS011;9221;42.646;23.380;2022-11-15T08:04:46;82.40;;;23.70;;
3967;SDS011;9221;42.646;23.380;2022-11-15T08:07:12;100.67;;;25.50;;
3967;SDS011;9221;42.646;23.380;2022-11-15T08:09:37;88.13;;;23.73;;
3967;SDS011;9221;42.646;23.380;2022-11-15T08:12:03;97.23;;;25.53;;
3967;SDS011;9221;42.646;23.380;2022-11-15T08:14:29;112.70;;;30.60;;
3967;SDS011;9221;42.646;23.380;2022-11-15T08:16:55;100.23;;;27.60;;
3967;SDS011;9221;42.646;23.380;2022-11-15T08:19:20;90.77;;;24.60;;
3967;SDS011;9221;42.646;23.380;2022-11-15T08:21:46;95.30;;;26.03;;
3967;SDS011;9221;42.646;23.380;2022-11-15T08:24:11;92.80;;;25.90;;
3967;SDS011;9221;42.646;23.380;2022-11-15T08:26:37;82.43;;;24.20;;
3967;SDS011;9221;42.646;23.380;2022-11-15T08:29:02;81.40;;;23.10;;
3967;SDS011;9221;42.646;23.380;2022-11-15T08:31:28;89.40;;;22.67;;
3967;SDS011;9221;42.646;23.380;2022-11-15T08:33:53;80.53;;;22.93;;
3967;SDS011;9221;42.646;23.380;2022-11-15T08:36:19;83.13;;;21.50;;
3967;SDS011;9221;42.646;23.380;2022-11-15T08:38:45;78.97;;;22.60;;
3967;SDS011;9221;42.646;23.380;2022-11-15T08:41:14;81.60;;;22.80;;
3967;SDS011;9221;42.646;23.380;2022-11-15T08:44:03;79.87;;;20.93;;
3967;SDS011;9221;42.646;23.380;2022-11-15T08:46:29;84.97;;;22.93;;
3967;SDS011;9221;42.646;23.380;2022-11-15T08:48:54;79.23;;;22.73;;
3967;SDS011;9221;42.646;23.380;2022-11-15T08:51:19;73.57;;;21.47;;
3967;SDS011;9221;42.646;23.380;2022-11-15T08:53:45;80.07;;;20.47;;
3967;SDS011;9221;42.646;23.380;2022-11-15T08:56:11;71.97;;;20.73;;
3967;SDS011;9221;42.646;23.380;2022-11-15T08:58:38;72.30;;;20.63;;
3967;SDS011;9221;42.646;23.380;2022-11-15T09:01:04;77.47;;;22.10;;
3967;SDS011;9221;42.646;23.380;2022-11-15T09:03:30;87.60;;;23.23;;
3967;SDS011;9221;42.646;23.380;2022-11-15T09:05:56;73.30;;;22.97;;
3967;SDS011;9221;42.646;23.380;2022-11-15T09:08:26;73.17;;;21.57;;
3967;SDS011;9221;42.646;23.380;2022-11-15T09:10:55;94.00;;;24.40;;
3967;SDS011;9221;42.646;23.380;2022-11-15T09:13:21;101.97;;;25.07;;
3967;SDS011;9221;42.646;23.380;2022-11-15T09:15:46;91.63;;;25.07;;
3967;SDS011;9221;42.646;23.380;2022-11-15T09:18:12;91.23;;;21.97;;
3967;SDS011;9221;42.646;23.380;2022-11-15T09:20:37;95.07;;;25.47;;
3967;SDS011;9221;42.646;23.380;2022-11-15T09:23:03;86.00;;;22.93;;
3967;SDS011;9221;42.646;23.380;2022-11-15T09:25:29;95.07;;;24.70;;
3967;SDS011;9221;42.646;23.380;2022-11-15T09:27:55;89.90;;;23.70;;
3967;SDS011;9221;42.646;23.380;2022-11-15T09:30:21;79.53;;;23.37;;
3967;SDS011;9221;42.646;23.380;2022-11-15T09:32:47;88.50;;;23.10;;
3967;SDS011;9221;42.646;23.380;2022-11-15T09:35:12;79.47;;;24.03;;
3967;SDS011;9221;42.646;23.380;2022-11-15T09:37:37;92.03;;;25.00;;
3967;SDS011;9221;42.646;23.380;2022-11-15T09:40:03;83.50;;;24.00;;
3967;SDS011;9221;42.646;23.380;2022-11-15T09:45:31;78.17;;;23.30;;
3967;SDS011;9221;42.646;23.380;2022-11-15T09:48:18;91.30;;;25.07;;
3967;SDS011;9221;42.646;23.380;2022-11-15T09:50:55;77.07;;;25.97;;
3967;SDS011;9221;42.646;23.380;2022-11-15T09:53:43;95.07;;;25.80;;
3967;SDS011;9221;42.646;23.380;2022-11-15T09:56:23;84.33;;;26.30;;
3967;SDS011;9221;42.646;23.380;2022-11-15T10:01:40;78.17;;;25.00;;
3967;SDS011;9221;42.646;23.380;2022-11-15T10:04:15;91.30;;;26.20;;
3967;SDS011;9221;42.646;23.380;2022-11-15T10:06:43;96.30;;;27.67;;
3967;SDS011;9221;42.646;23.380;2022-11-15T10:09:19;102.07;;;29.30;;
3967;SDS011;9221;42.646;23.380;2022-11-15T10:11:58;96.07;;;27.33;;
3967;SDS011;9221;42.646;23.380;2022-11-15T10:14:25;91.73;;;27.17;;
3967;SDS011;9221;42.646;23.380;2022-11-15T10:22:59;69.20;;;25.33;;
3967;SDS011;9221;42.646;23.380;2022-11-15T10:25:27;71.47;;;24.80;;
3967;SDS011;9221;42.646;23.380;2022-11-15T10:27:58;84.50;;;24.30;;
3967;SDS011;9221;42.646;23.380;2022-11-15T10:30:42;94.00;;;27.47;;
3967;SDS011;9221;42.646;23.380;2022-11-15T10:41:13;70.50;;;22.03;;
3967;SDS011;9221;42.646;23.380;2022-11-15T10:43:40;84.60;;;24.77;;
3967;SDS011;9221;42.646;23.380;2022-11-15T10:46:19;79.33;;;25.17;;
3967;SDS011;9221;42.646;23.380;2022-11-15T10:48:46;72.53;;;22.90;;
3967;SDS011;9221;42.646;23.380;2022-11-15T10:51:25;66.30;;;21.47;;
3967;SDS011;9221;42.646;23.380;2022-11-15T10:53:57;79.60;;;22.20;;
3967;SDS011;9221;42.646;23.380;2022-11-15T10:56:25;66.60;;;21.10;;
3967;SDS011;9221;42.646;23.380;2022-11-15T10:58:55;82.03;;;24.13;;
3967;SDS011;9221;42.646;23.380;2022-11-15T11:01:22;74.97;;;20.40;;
3967;SDS011;9221;42.646;23.380;2022-11-15T11:04:00;75.63;;;22.63;;
3967;SDS011;9221;42.646;23.380;2022-11-15T11:06:29;71.43;;;19.47;;
3967;SDS011;9221;42.646;23.380;2022-11-15T11:08:56;62.37;;;18.87;;
3967;SDS011;9221;42.646;23.380;2022-11-15T11:11:24;66.70;;;22.07;;
3967;SDS011;9221;42.646;23.380;2022-11-15T11:14:13;77.53;;;22.10;;
3967;SDS011;9221;42.646;23.380;2022-11-15T11:30:30;80.10;;;21.87;;
3967;SDS011;9221;42.646;23.380;2022-11-15T11:33:05;68.83;;;22.40;;
3967;SDS011;9221;42.646;23.380;2022-11-15T11:38:42;74.97;;;22.67;;
3967;SDS011;9221;42.646;23.380;2022-11-15T11:49:09;74.80;;;21.90;;
3967;SDS011;9221;42.646;23.380;2022-11-15T11:57:05;70.67;;;22.43;;
3967;SDS011;9221;42.646;23.380;2022-11-15T11:59:42;78.63;;;22.03;;
3967;SDS011;9221;42.646;23.380;2022-11-15T12:02:16;83.40;;;22.50;;
3967;SDS011;9221;42.646;23.380;2022-11-15T12:04:50;81.67;;;23.80;;
3967;SDS011;9221;42.646;23.380;2022-11-15T12:07:25;71.17;;;22.10;;
3967;SDS011;9221;42.646;23.380;2022-11-15T12:10:01;69.27;;;23.90;;
3967;SDS011;9221;42.646;23.380;2022-11-15T12:12:43;77.03;;;22.80;;
3967;SDS011;9221;42.646;23.380;2022-11-15T12:15:16;65.13;;;21.00;;
3967;SDS011;9221;42.646;23.380;2022-11-15T12:17:45;77.33;;;22.07;;
3967;SDS011;9221;42.646;23.380;2022-11-15T12:20:16;70.87;;;22.07;;
3967;SDS011;9221;42.646;23.380;2022-11-15T12:25:25;86.17;;;23.23;;
3967;SDS011;9221;42.646;23.380;2022-11-15T12:27:59;71.20;;;21.37;;
3967;SDS011;9221;42.646;23.380;2022-11-15T12:30:44;70.53;;;21.63;;
3967;SDS011;9221;42.646;23.380;2022-11-15T12:33:30;82.10;;;23.80;;
3967;SDS011;9221;42.646;23.380;2022-11-15T12:36:11;73.57;;;22.70;;
3967;SDS011;9221;42.646;23.380;2022-11-15T12:38:56;63.67;;;21.13;;
3967;SDS011;9221;42.646;23.380;2022-11-15T12:43:50;78.87;;;23.90;;
3967;SDS011;9221;42.646;23.380;2022-11-15T12:54:58;77.33;;;24.27;;
3967;SDS011;9221;42.646;23.380;2022-11-15T13:02:27;78.30;;;24.43;;
3967;SDS011;9221;42.646;23.380;2022-11-15T13:17:37;80.53;;;23.70;;
3967;SDS011;9221;42.646;23.380;2022-11-15T13:22:39;86.20;;;24.50;;
3967;SDS011;9221;42.646;23.380;2022-11-15T13:30:50;69.30;;;23.97;;
3967;SDS011;9221;42.646;23.380;2022-11-15T13:35:48;85.83;;;22.50;;
3967;SDS011;9221;42.646;23.380;2022-11-15T13:38:26;68.67;;;21.80;;
3967;SDS011;9221;42.646;23.380;2022-11-15T13:41:22;65.80;;;23.33;;
3967;SDS011;9221;42.646;23.380;2022-11-15T13:43:50;81.83;;;24.97;;
3967;SDS011;9221;42.646;23.380;2022-11-15T13:46:17;88.20;;;24.37;;
3967;SDS011;9221;42.646;23.380;2022-11-15T13:48:44;84.13;;;22.77;;
3967;SDS011;9221;42.646;23.380;2022-11-15T13:53:50;86.70;;;23.93;;
3967;SDS011;9221;42.646;23.380;2022-11-15T13:56:20;73.00;;;24.70;;
3967;SDS011;9221;42.646;23.380;2022-11-15T13:58:46;80.80;;;25.07;;
3967;SDS011;9221;42.646;23.380;2022-11-15T14:01:16;77.53;;;24.00;;
3967;SDS011;9221;42.646;23.380;2022-11-15T14:03:50;73.40;;;25.27;;
3967;SDS011;9221;42.646;23.380;2022-11-15T14:06:20;84.27;;;24.97;;
3967;SDS011;9221;42.646;23.380;2022-11-15T14:11:57;75.67;;;25.77;;
3967;SDS011;9221;42.646;23.380;2022-11-15T14:14:24;93.33;;;25.77;;
3967;SDS011;9221;42.646;23.380;2022-11-15T14:16:52;84.63;;;25.80;;
3967;SDS011;9221;42.646;23.380;2022-11-15T14:22:10;75.53;;;24.60;;
3967;SDS011;9221;42.646;23.380;2022-11-15T14:24:46;78.10;;;23.60;;
3967;SDS011;9221;42.646;23.380;2022-11-15T14:27:30;93.80;;;27.87;;
3967;SDS011;9221;42.646;23.380;2022-11-15T14:29:56;75.03;;;24.83;;
3967;SDS011;9221;42.646;23.380;2022-11-15T14:32:23;87.70;;;25.90;;
3967;SDS011;9221;42.646;23.380;2022-11-15T14:35:09;95.07;;;24.33;;
3967;SDS011;9221;42.646;23.380;2022-11-15T14:37:52;78.40;;;23.30;;
3967;SDS011;9221;42.646;23.380;2022-11-15T14:40:19;77.60;;;23.60;;
3967;SDS011;9221;42.646;23.380;2022-11-15T14:42:48;71.87;;;22.30;;
3967;SDS011;9221;42.646;23.380;2022-11-15T14:45:16;73.97;;;22.70;;
3967;SDS011;9221;42.646;23.380;2022-11-15T14:47:44;78.93;;;25.57;;
3967;SDS011;9221;42.646;23.380;2022-11-15T14:50:13;87.13;;;25.23;;
3967;SDS011;9221;42.646;23.380;2022-11-15T14:52:41;106.90;;;26.30;;
3967;SDS011;9221;42.646;23.380;2022-11-15T14:58:33;96.83;;;27.43;;
3967;SDS011;9221;42.646;23.380;2022-11-15T15:01:24;101.93;;;28.07;;
3967;SDS011;9221;42.646;23.380;2022-11-15T15:04:02;105.37;;;30.07;;
3967;SDS011;9221;42.646;23.380;2022-11-15T15:06:34;113.03;;;33.57;;
3967;SDS011;9221;42.646;23.380;2022-11-15T15:09:20;104.50;;;31.07;;
3967;SDS011;9221;42.646;23.380;2022-11-15T15:11:58;116.50;;;33.47;;
3967;SDS011;9221;42.646;23.380;2022-11-15T15:14:28;119.73;;;32.90;;
3967;SDS011;9221;42.646;23.380;2022-11-15T15:16:57;108.63;;;35.67;;
3967;SDS011;9221;42.646;23.380;2022-11-15T15:19:36;113.90;;;32.77;;
3967;SDS011;9221;42.646;23.380;2022-11-15T15:22:15;112.10;;;31.87;;
3967;SDS011;9221;42.646;23.380;2022-11-15T15:24:43;99.00;;;31.50;;
3967;SDS011;9221;42.646;23.380;2022-11-15T15:27:09;108.20;;;32.37;;
3967;SDS011;9221;42.646;23.380;2022-11-15T15:29:35;106.20;;;32.00;;
3967;SDS011;9221;42.646;23.380;2022-11-15T15:32:01;132.80;;;37.07;;
3967;SDS011;9221;42.646;23.380;2022-11-15T15:34:27;131.90;;;35.13;;
3967;SDS011;9221;42.646;23.380;2022-11-15T15:39:49;97.63;;;32.37;;
3967;SDS011;9221;42.646;23.380;2022-11-15T15:42:19;127.37;;;34.20;;
3967;SDS011;9221;42.646;23.380;2022-11-15T15:44:45;121.00;;;34.87;;
3967;SDS011;9221;42.646;23.380;2022-11-15T15:47:21;109.80;;;34.00;;
3967;SDS011;9221;42.646;23.380;2022-11-15T15:49:47;117.50;;;34.27;;
3967;SDS011;9221;42.646;23.380;2022-11-15T15:52:16;122.67;;;35.27;;
3967;SDS011;9221;42.646;23.380;2022-11-15T15:54:42;103.83;;;32.50;;
3967;SDS011;9221;42.646;23.380;2022-11-15T15:57:07;124.27;;;37.20;;
3967;SDS011;9221;42.646;23.380;2022-11-15T15:59:36;130.87;;;35.20;;
3967;SDS011;9221;42.646;23.380;2022-11-15T16:02:02;119.90;;;35.47;;
3967;SDS011;9221;42.646;23.380;2022-11-15T16:04:28;136.43;;;36.87;;
3967;SDS011;9221;42.646;23.380;2022-11-15T16:06:57;119.83;;;34.23;;
3967;SDS011;9221;42.646;23.380;2022-11-15T16:09:24;106.30;;;31.03;;
3967;SDS011;9221;42.646;23.380;2022-11-15T16:12:09;107.93;;;32.03;;
3967;SDS011;9221;42.646;23.380;2022-11-15T16:14:35;113.90;;;31.93;;
3967;SDS011;9221;42.646;23.380;2022-11-15T16:17:01;113.77;;;33.30;;
3967;SDS011;9221;42.646;23.380;2022-11-15T16:19:27;118.30;;;34.23;;
3967;SDS011;9221;42.646;23.380;2022-11-15T16:21:52;131.13;;;34.17;;
3967;SDS011;9221;42.646;23.380;2022-11-15T16:24:18;96.10;;;31.40;;
3967;SDS011;9221;42.646;23.380;2022-11-15T16:26:44;105.10;;;29.70;;
3967;SDS011;9221;42.646;23.380;2022-11-15T16:29:10;92.20;;;28.60;;
3967;SDS011;9221;42.646;23.380;2022-11-15T16:31:36;90.97;;;30.93;;
3967;SDS011;9221;42.646;23.380;2022-11-15T16:34:01;101.33;;;28.60;;
3967;SDS011;9221;42.646;23.380;2022-11-15T16:36:27;99.90;;;30.93;;
3967;SDS011;9221;42.646;23.380;2022-11-15T16:38:57;117.80;;;34.93;;
3967;SDS011;9221;42.646;23.380;2022-11-15T16:41:23;109.27;;;33.37;;
3967;SDS011;9221;42.646;23.380;2022-11-15T16:43:48;129.57;;;36.07;;
3967;SDS011;9221;42.646;23.380;2022-11-15T16:46:24;139.83;;;37.10;;
3967;SDS011;9221;42.646;23.380;2022-11-15T16:48:51;163.17;;;35.10;;
3967;SDS011;9221;42.646;23.380;2022-11-15T16:51:17;121.87;;;38.27;;
3967;SDS011;9221;42.646;23.380;2022-11-15T16:53:43;119.40;;;34.83;;
3967;SDS011;9221;42.646;23.380;2022-11-15T16:56:29;121.67;;;35.20;;
3967;SDS011;9221;42.646;23.380;2022-11-15T16:58:55;113.77;;;32.10;;
3967;SDS011;9221;42.646;23.380;2022-11-15T17:01:26;107.27;;;30.43;;
3967;SDS011;9221;42.646;23.380;2022-11-15T17:03:53;111.07;;;29.57;;
3967;SDS011;9221;42.646;23.380;2022-11-15T17:06:20;104.47;;;29.77;;
3967;SDS011;9221;42.646;23.380;2022-11-15T17:08:46;100.53;;;29.73;;
3967;SDS011;9221;42.646;23.380;2022-11-15T17:11:16;113.50;;;30.30;;
3967;SDS011;9221;42.646;23.380;2022-11-15T17:13:43;115.80;;;30.97;;
3967;SDS011;9221;42.646;23.380;2022-11-15T17:16:13;105.70;;;28.67;;